sensor_id;sensor_type;location;lat;lon;timestamp;temperature;humidity
1956;DHT22;978;48.314;11.562;2022-10-16T00:00:38;23.00;81.20
1956;DHT22;978;48.314;11.562;2022-10-16T00:03:06;22.90;81.10
1956;DHT22;978;48.314;11.562;2022-10-16T00:05:38;22.90;81.20
1956;DHT22;978;48.314;11.562;2022-10-16T00:08:06;22.90;81.10
1956;DHT22;978;48.314;11.562;2022-10-16T00:10:33;23.00;81.20
1956;DHT22;978;48.314;11.562;2022-10-16T00:13:00;23.00;81.30
1956;DHT22;978;48.314;11.562;2022-10-16T00:15:27;23.00;81.30
1956;DHT22;978;48.314;11.562;2022-10-16T00:17:53;22.90;81.20
1956;DHT22;978;48.314;11.562;2022-10-16T00:20:20;22.90;81.20
1956;DHT22;978;48.314;11.562;2022-10-16T00:22:47;22.90;81.20
1956;DHT22;978;48.314;11.562;2022-10-16T00:25:15;22.90;81.20
1956;DHT22;978;48.314;11.562;2022-10-16T00:27:42;22.90;81.20
1956;DHT22;978;48.314;11.562;2022-10-16T00:30:09;23.00;81.30
1956;DHT22;978;48.314;11.562;2022-10-16T00:32:36;22.90;81.30
1956;DHT22;978;48.314;11.562;2022-10-16T00:35:03;22.90;81.30
1956;DHT22;978;48.314;11.562;2022-10-16T00:37:30;22.90;81.30
1956;DHT22;978;48.314;11.562;2022-10-16T00:39:57;22.90;81.30
1956;DHT22;978;48.314;11.562;2022-10-16T00:42:25;23.00;81.30
1956;DHT22;978;48.314;11.562;2022-10-16T00:44:53;22.90;81.30
1956;DHT22;978;48.314;11.562;2022-10-16T00:47:26;22.90;81.30
1956;DHT22;978;48.314;11.562;2022-10-16T00:49:58;22.90;81.30
1956;DHT22;978;48.314;11.562;2022-10-16T00:52:25;22.90;81.90
1956;DHT22;978;48.314;11.562;2022-10-16T00:54:52;22.90;81.30
1956;DHT22;978;48.314;11.562;2022-10-16T00:57:20;22.90;81.30
1956;DHT22;978;48.314;11.562;2022-10-16T00:59:48;22.90;81.30
1956;DHT22;978;48.314;11.562;2022-10-16T01:02:16;22.90;81.30
1956;DHT22;978;48.314;11.562;2022-10-16T01:04:45;22.90;81.30
1956;DHT22;978;48.314;11.562;2022-10-16T01:07:16;22.90;81.30
1956;DHT22;978;48.314;11.562;2022-10-16T01:09:55;22.90;81.30
1956;DHT22;978;48.314;11.562;2022-10-16T01:12:34;22.90;81.30
1956;DHT22;978;48.314;11.562;2022-10-16T01:15:08;22.90;81.40
1956;DHT22;978;48.314;11.562;2022-10-16T01:17:41;22.90;81.40
1956;DHT22;978;48.314;11.562;2022-10-16T01:20:13;22.90;81.40
1956;DHT22;978;48.314;11.562;2022-10-16T01:22:59;22.90;81.40
1956;DHT22;978;48.314;11.562;2022-10-16T01:25:49;22.90;81.40
1956;DHT22;978;48.314;11.562;2022-10-16T01:28:25;22.90;81.40
1956;DHT22;978;48.314;11.562;2022-10-16T01:30:58;22.90;81.40
1956;DHT22;978;48.314;11.562;2022-10-16T01:33:30;22.90;81.40
1956;DHT22;978;48.314;11.562;2022-10-16T01:36:05;22.90;81.40
1956;DHT22;978;48.314;11.562;2022-10-16T01:38:35;22.90;81.40
1956;DHT22;978;48.314;11.562;2022-10-16T01:41:07;22.90;81.40
1956;DHT22;978;48.314;11.562;2022-10-16T01:43:39;22.90;81.40
1956;DHT22;978;48.314;11.562;2022-10-16T01:46:08;22.90;81.40
1956;DHT22;978;48.314;11.562;2022-10-16T01:48:35;22.90;81.50
1956;DHT22;978;48.314;11.562;2022-10-16T01:51:05;22.90;81.50
1956;DHT22;978;48.314;11.562;2022-10-16T01:53:33;22.90;81.50
1956;DHT22;978;48.314;11.562;2022-10-16T01:56:02;22.90;81.50
1956;DHT22;978;48.314;11.562;2022-10-16T01:58:33;22.90;81.50
1956;DHT22;978;48.314;11.562;2022-10-16T02:01:03;22.90;81.50
1956;DHT22;978;48.314;11.562;2022-10-16T02:03:32;22.90;81.50
1956;DHT22;978;48.314;11.562;2022-10-16T02:06:00;22.90;81.50
1956;DHT22;978;48.314;11.562;2022-10-16T02:08:28;22.90;81.50
1956;DHT22;978;48.314;11.562;2022-10-16T02:10:56;22.90;81.50
1956;DHT22;978;48.314;11.562;2022-10-16T02:13:28;22.90;81.50
1956;DHT22;978;48.314;11.562;2022-10-16T02:15:56;22.90;81.50
1956;DHT22;978;48.314;11.562;2022-10-16T02:18:24;22.90;81.50
1956;DHT22;978;48.314;11.562;2022-10-16T02:20:58;22.90;81.50
1956;DHT22;978;48.314;11.562;2022-10-16T02:23:32;22.90;81.50
1956;DHT22;978;48.314;11.562;2022-10-16T02:26:03;22.90;81.50
1956;DHT22;978;48.314;11.562;2022-10-16T02:28:36;22.90;81.50
1956;DHT22;978;48.314;11.562;2022-10-16T02:31:10;22.90;81.60
1956;DHT22;978;48.314;11.562;2022-10-16T02:33:40;22.90;81.60
1956;DHT22;978;48.314;11.562;2022-10-16T02:36:09;22.90;81.60
1956;DHT22;978;48.314;11.562;2022-10-16T02:38:37;22.90;81.60
1956;DHT22;978;48.314;11.562;2022-10-16T02:41:05;22.90;81.60
1956;DHT22;978;48.314;11.562;2022-10-16T02:43:32;22.90;81.60
1956;DHT22;978;48.314;11.562;2022-10-16T02:45:59;22.90;81.60
1956;DHT22;978;48.314;11.562;2022-10-16T02:48:26;22.90;81.60
1956;DHT22;978;48.314;11.562;2022-10-16T02:50:54;22.90;81.60
1956;DHT22;978;48.314;11.562;2022-10-16T02:53:22;22.90;81.60
1956;DHT22;978;48.314;11.562;2022-10-16T02:55:49;22.90;81.60
1956;DHT22;978;48.314;11.562;2022-10-16T02:58:16;22.90;81.60
1956;DHT22;978;48.314;11.562;2022-10-16T03:00:45;22.90;81.60
1956;DHT22;978;48.314;11.562;2022-10-16T03:03:12;22.90;81.60
1956;DHT22;978;48.314;11.562;2022-10-16T03:05:39;22.90;81.60
1956;DHT22;978;48.314;11.562;2022-10-16T03:08:07;22.90;81.60
1956;DHT22;978;48.314;11.562;2022-10-16T03:10:34;22.90;81.60
1956;DHT22;978;48.314;11.562;2022-10-16T03:13:00;22.90;81.60
1956;DHT22;978;48.314;11.562;2022-10-16T03:15:28;22.90;81.60
1956;DHT22;978;48.314;11.562;2022-10-16T03:17:56;22.90;81.60
1956;DHT22;978;48.314;11.562;2022-10-16T03:20:23;22.90;81.70
1956;DHT22;978;48.314;11.562;2022-10-16T03:22:50;22.80;81.60
1956;DHT22;978;48.314;11.562;2022-10-16T03:25:18;22.90;81.70
1956;DHT22;978;48.314;11.562;2022-10-16T03:27:45;22.90;81.60
1956;DHT22;978;48.314;11.562;2022-10-16T03:30:12;22.80;81.60
1956;DHT22;978;48.314;11.562;2022-10-16T03:32:39;22.80;81.70
1956;DHT22;978;48.314;11.562;2022-10-16T03:35:06;22.90;81.70
1956;DHT22;978;48.314;11.562;2022-10-16T03:37:33;22.80;81.60
1956;DHT22;978;48.314;11.562;2022-10-16T03:39:59;22.80;81.60
1956;DHT22;978;48.314;11.562;2022-10-16T03:42:27;22.80;81.60
1956;DHT22;978;48.314;11.562;2022-10-16T03:44:54;22.90;81.70
1956;DHT22;978;48.314;11.562;2022-10-16T03:47:21;22.80;81.60
1956;DHT22;978;48.314;11.562;2022-10-16T03:49:49;22.90;81.70
1956;DHT22;978;48.314;11.562;2022-10-16T03:52:16;22.80;81.70
1956;DHT22;978;48.314;11.562;2022-10-16T03:54:42;22.80;81.60
1956;DHT22;978;48.314;11.562;2022-10-16T03:57:09;22.90;81.70
1956;DHT22;978;48.314;11.562;2022-10-16T03:59:37;22.80;81.70
1956;DHT22;978;48.314;11.562;2022-10-16T04:02:04;22.80;81.70
1956;DHT22;978;48.314;11.562;2022-10-16T04:04:30;22.80;81.70
1956;DHT22;978;48.314;11.562;2022-10-16T04:06:57;22.90;81.70
1956;DHT22;978;48.314;11.562;2022-10-16T04:09:24;22.90;82.30
1956;DHT22;978;48.314;11.562;2022-10-16T04:11:50;22.80;81.70
1956;DHT22;978;48.314;11.562;2022-10-16T04:14:17;22.80;81.70
1956;DHT22;978;48.314;11.562;2022-10-16T04:16:45;22.80;81.70
1956;DHT22;978;48.314;11.562;2022-10-16T04:19:12;22.90;81.80
1956;DHT22;978;48.314;11.562;2022-10-16T04:21:38;22.80;81.70
1956;DHT22;978;48.314;11.562;2022-10-16T04:24:05;22.80;81.70
1956;DHT22;978;48.314;11.562;2022-10-16T04:26:32;22.80;81.70
1956;DHT22;978;48.314;11.562;2022-10-16T04:28:59;22.80;81.70
1956;DHT22;978;48.314;11.562;2022-10-16T04:31:26;22.80;81.70
1956;DHT22;978;48.314;11.562;2022-10-16T04:33:54;22.80;81.70
1956;DHT22;978;48.314;11.562;2022-10-16T04:36:20;22.80;81.70
1956;DHT22;978;48.314;11.562;2022-10-16T04:38:47;22.90;81.80
1956;DHT22;978;48.314;11.562;2022-10-16T04:41:14;22.80;81.80
1956;DHT22;978;48.314;11.562;2022-10-16T04:43:40;22.80;81.70
1956;DHT22;978;48.314;11.562;2022-10-16T04:46:07;22.80;81.70
1956;DHT22;978;48.314;11.562;2022-10-16T04:48:35;22.80;81.70
1956;DHT22;978;48.314;11.562;2022-10-16T04:51:03;22.80;81.70
1956;DHT22;978;48.314;11.562;2022-10-16T04:53:30;22.90;81.80
1956;DHT22;978;48.314;11.562;2022-10-16T04:55:57;22.80;81.70
1956;DHT22;978;48.314;11.562;2022-10-16T04:58:23;22.80;81.80
1956;DHT22;978;48.314;11.562;2022-10-16T05:00:50;22.80;81.80
1956;DHT22;978;48.314;11.562;2022-10-16T05:03:17;22.80;81.80
1956;DHT22;978;48.314;11.562;2022-10-16T05:05:45;22.80;81.90
1956;DHT22;978;48.314;11.562;2022-10-16T05:08:14;22.80;81.90
1956;DHT22;978;48.314;11.562;2022-10-16T05:10:42;22.80;82.00
1956;DHT22;978;48.314;11.562;2022-10-16T05:13:09;22.80;82.00
1956;DHT22;978;48.314;11.562;2022-10-16T05:15:36;22.80;82.10
1956;DHT22;978;48.314;11.562;2022-10-16T05:18:02;22.80;82.10
1956;DHT22;978;48.314;11.562;2022-10-16T05:20:29;22.80;82.30
1956;DHT22;978;48.314;11.562;2022-10-16T05:22:56;22.80;82.20
1956;DHT22;978;48.314;11.562;2022-10-16T05:25:24;22.80;82.30
1956;DHT22;978;48.314;11.562;2022-10-16T05:27:51;22.80;82.10
1956;DHT22;978;48.314;11.562;2022-10-16T05:30:18;22.80;82.10
1956;DHT22;978;48.314;11.562;2022-10-16T05:32:47;22.80;82.30
1956;DHT22;978;48.314;11.562;2022-10-16T05:35:14;22.80;82.40
1956;DHT22;978;48.314;11.562;2022-10-16T05:37:43;22.90;82.30
1956;DHT22;978;48.314;11.562;2022-10-16T05:40:11;22.90;82.20
1956;DHT22;978;48.314;11.562;2022-10-16T05:42:40;22.90;82.30
1956;DHT22;978;48.314;11.562;2022-10-16T05:45:09;22.90;82.40
1956;DHT22;978;48.314;11.562;2022-10-16T05:47:36;22.80;82.40
1956;DHT22;978;48.314;11.562;2022-10-16T05:50:04;22.80;82.40
1956;DHT22;978;48.314;11.562;2022-10-16T05:52:31;22.90;82.50
1956;DHT22;978;48.314;11.562;2022-10-16T05:54:57;22.90;82.50
1956;DHT22;978;48.314;11.562;2022-10-16T05:57:24;22.80;82.50
1956;DHT22;978;48.314;11.562;2022-10-16T05:59:52;22.90;82.50
1956;DHT22;978;48.314;11.562;2022-10-16T06:02:19;22.80;82.50
1956;DHT22;978;48.314;11.562;2022-10-16T06:04:45;22.80;82.50
1956;DHT22;978;48.314;11.562;2022-10-16T06:07:12;22.80;82.60
1956;DHT22;978;48.314;11.562;2022-10-16T06:09:39;22.90;82.60
1956;DHT22;978;48.314;11.562;2022-10-16T06:12:06;22.80;82.60
1956;DHT22;978;48.314;11.562;2022-10-16T06:14:33;22.80;82.60
1956;DHT22;978;48.314;11.562;2022-10-16T06:17:01;22.90;82.70
1956;DHT22;978;48.314;11.562;2022-10-16T06:19:28;22.90;82.70
1956;DHT22;978;48.314;11.562;2022-10-16T06:21:54;22.80;82.60
1956;DHT22;978;48.314;11.562;2022-10-16T06:24:23;22.80;82.60
1956;DHT22;978;48.314;11.562;2022-10-16T06:26:50;22.80;82.60
1956;DHT22;978;48.314;11.562;2022-10-16T06:29:16;22.90;82.80
1956;DHT22;978;48.314;11.562;2022-10-16T06:31:43;22.80;82.70
1956;DHT22;978;48.314;11.562;2022-10-16T06:34:11;22.80;82.70
1956;DHT22;978;48.314;11.562;2022-10-16T06:36:38;22.80;82.60
1956;DHT22;978;48.314;11.562;2022-10-16T06:39:05;22.80;82.60
1956;DHT22;978;48.314;11.562;2022-10-16T06:41:33;22.80;82.60
1956;DHT22;978;48.314;11.562;2022-10-16T06:44:00;22.80;82.70
1956;DHT22;978;48.314;11.562;2022-10-16T06:46:27;22.90;83.00
1956;DHT22;978;48.314;11.562;2022-10-16T06:48:54;22.90;83.00
1956;DHT22;978;48.314;11.562;2022-10-16T06:51:23;22.80;82.90
1956;DHT22;978;48.314;11.562;2022-10-16T06:53:52;22.90;83.00
1956;DHT22;978;48.314;11.562;2022-10-16T06:56:20;22.90;83.00
1956;DHT22;978;48.314;11.562;2022-10-16T06:58:48;22.80;82.90
1956;DHT22;978;48.314;11.562;2022-10-16T07:01:16;22.80;82.90
1956;DHT22;978;48.314;11.562;2022-10-16T07:03:44;22.90;82.90
1956;DHT22;978;48.314;11.562;2022-10-16T07:06:13;22.80;82.80
1956;DHT22;978;48.314;11.562;2022-10-16T07:08:42;22.80;82.70
1956;DHT22;978;48.314;11.562;2022-10-16T07:11:10;22.80;82.60
1956;DHT22;978;48.314;11.562;2022-10-16T07:13:39;22.80;82.40
1956;DHT22;978;48.314;11.562;2022-10-16T07:16:06;22.80;82.30
1956;DHT22;978;48.314;11.562;2022-10-16T07:18:32;22.80;82.20
1956;DHT22;978;48.314;11.562;2022-10-16T07:21:04;22.80;82.10
1956;DHT22;978;48.314;11.562;2022-10-16T07:23:30;22.90;82.20
1956;DHT22;978;48.314;11.562;2022-10-16T07:25:59;22.80;82.00
1956;DHT22;978;48.314;11.562;2022-10-16T07:28:26;22.80;81.90
1956;DHT22;978;48.314;11.562;2022-10-16T07:30:53;22.80;81.90
1956;DHT22;978;48.314;11.562;2022-10-16T07:33:20;22.80;81.80
1956;DHT22;978;48.314;11.562;2022-10-16T07:35:50;22.80;81.80
1956;DHT22;978;48.314;11.562;2022-10-16T07:38:17;22.80;81.70
1956;DHT22;978;48.314;11.562;2022-10-16T07:40:44;22.80;81.70
1956;DHT22;978;48.314;11.562;2022-10-16T07:43:13;22.80;81.60
1956;DHT22;978;48.314;11.562;2022-10-16T07:45:46;22.80;82.20
1956;DHT22;978;48.314;11.562;2022-10-16T07:48:13;22.80;81.50
1956;DHT22;978;48.314;11.562;2022-10-16T07:50:40;22.80;81.50
1956;DHT22;978;48.314;11.562;2022-10-16T07:53:07;22.80;81.50
1956;DHT22;978;48.314;11.562;2022-10-16T07:55:34;22.80;81.40
1956;DHT22;978;48.314;11.562;2022-10-16T07:58:01;22.80;81.40
1956;DHT22;978;48.314;11.562;2022-10-16T08:00:29;22.80;81.40
1956;DHT22;978;48.314;11.562;2022-10-16T08:02:56;22.80;81.40
1956;DHT22;978;48.314;11.562;2022-10-16T08:05:25;22.80;81.30
1956;DHT22;978;48.314;11.562;2022-10-16T08:07:52;22.80;81.30
1956;DHT22;978;48.314;11.562;2022-10-16T08:10:22;22.80;81.20
1956;DHT22;978;48.314;11.562;2022-10-16T08:12:49;22.80;81.80
1956;DHT22;978;48.314;11.562;2022-10-16T08:15:15;22.80;81.20
1956;DHT22;978;48.314;11.562;2022-10-16T08:17:44;22.80;81.20
1956;DHT22;978;48.314;11.562;2022-10-16T08:20:11;22.80;81.30
1956;DHT22;978;48.314;11.562;2022-10-16T08:22:38;22.80;81.40
1956;DHT22;978;48.314;11.562;2022-10-16T08:25:05;22.80;81.40
1956;DHT22;978;48.314;11.562;2022-10-16T08:27:32;22.80;81.40
1956;DHT22;978;48.314;11.562;2022-10-16T08:29:59;22.80;81.30
1956;DHT22;978;48.314;11.562;2022-10-16T08:32:25;22.80;81.30
1956;DHT22;978;48.314;11.562;2022-10-16T08:34:54;22.80;81.20
1956;DHT22;978;48.314;11.562;2022-10-16T08:37:20;22.80;81.20
1956;DHT22;978;48.314;11.562;2022-10-16T08:39:47;22.80;81.20
1956;DHT22;978;48.314;11.562;2022-10-16T08:42:25;22.80;81.30
1956;DHT22;978;48.314;11.562;2022-10-16T08:45:15;22.80;81.30
1956;DHT22;978;48.314;11.562;2022-10-16T08:47:49;22.80;81.30
1956;DHT22;978;48.314;11.562;2022-10-16T08:50:25;22.80;81.30
1956;DHT22;978;48.314;11.562;2022-10-16T08:52:53;22.80;81.30
1956;DHT22;978;48.314;11.562;2022-10-16T08:55:31;22.80;81.30
1956;DHT22;978;48.314;11.562;2022-10-16T08:58:00;22.80;81.30
1956;DHT22;978;48.314;11.562;2022-10-16T09:00:27;22.80;81.90
1956;DHT22;978;48.314;11.562;2022-10-16T09:03:04;22.80;81.30
1956;DHT22;978;48.314;11.562;2022-10-16T09:05:52;22.80;81.30
1956;DHT22;978;48.314;11.562;2022-10-16T09:08:28;22.80;81.30
1956;DHT22;978;48.314;11.562;2022-10-16T09:10:59;22.80;81.40
1956;DHT22;978;48.314;11.562;2022-10-16T09:13:33;22.80;81.40
1956;DHT22;978;48.314;11.562;2022-10-16T09:16:12;22.80;81.50
1956;DHT22;978;48.314;11.562;2022-10-16T09:18:45;22.80;81.50
1956;DHT22;978;48.314;11.562;2022-10-16T09:21:21;22.80;81.60
1956;DHT22;978;48.314;11.562;2022-10-16T09:23:49;22.80;81.60
1956;DHT22;978;48.314;11.562;2022-10-16T09:26:17;22.70;81.70
1956;DHT22;978;48.314;11.562;2022-10-16T09:28:45;22.80;81.70
1956;DHT22;978;48.314;11.562;2022-10-16T09:31:20;22.80;81.80
1956;DHT22;978;48.314;11.562;2022-10-16T09:33:51;22.80;81.80
1956;DHT22;978;48.314;11.562;2022-10-16T09:36:20;22.80;81.80
1956;DHT22;978;48.314;11.562;2022-10-16T09:38:47;22.80;81.80
1956;DHT22;978;48.314;11.562;2022-10-16T09:41:17;22.80;81.80
1956;DHT22;978;48.314;11.562;2022-10-16T09:43:50;22.80;81.80
1956;DHT22;978;48.314;11.562;2022-10-16T09:46:25;22.80;81.80
1956;DHT22;978;48.314;11.562;2022-10-16T09:48:55;22.80;81.80
1956;DHT22;978;48.314;11.562;2022-10-16T09:51:25;22.80;81.80
1956;DHT22;978;48.314;11.562;2022-10-16T09:53:56;22.80;81.80
1956;DHT22;978;48.314;11.562;2022-10-16T09:56:25;22.80;81.90
1956;DHT22;978;48.314;11.562;2022-10-16T09:58:53;22.80;81.90
1956;DHT22;978;48.314;11.562;2022-10-16T10:01:21;22.80;82.00
1956;DHT22;978;48.314;11.562;2022-10-16T10:03:49;22.80;82.00
1956;DHT22;978;48.314;11.562;2022-10-16T10:06:23;22.80;82.00
1956;DHT22;978;48.314;11.562;2022-10-16T10:08:56;22.80;82.00
1956;DHT22;978;48.314;11.562;2022-10-16T10:11:44;22.80;82.00
1956;DHT22;978;48.314;11.562;2022-10-16T10:14:18;22.80;82.60
1956;DHT22;978;48.314;11.562;2022-10-16T10:16:47;22.80;82.00
1956;DHT22;978;48.314;11.562;2022-10-16T10:19:15;22.80;82.10
1956;DHT22;978;48.314;11.562;2022-10-16T10:21:44;22.80;82.10
1956;DHT22;978;48.314;11.562;2022-10-16T10:24:12;22.80;82.10
1956;DHT22;978;48.314;11.562;2022-10-16T10:26:44;22.80;82.10
1956;DHT22;978;48.314;11.562;2022-10-16T10:29:17;22.80;82.10
1956;DHT22;978;48.314;11.562;2022-10-16T10:31:51;22.80;82.20
1956;DHT22;978;48.314;11.562;2022-10-16T10:34:33;22.80;82.20
1956;DHT22;978;48.314;11.562;2022-10-16T10:37:08;22.80;82.20
1956;DHT22;978;48.314;11.562;2022-10-16T10:39:42;22.80;82.20
1956;DHT22;978;48.314;11.562;2022-10-16T10:42:17;22.80;82.20
1956;DHT22;978;48.314;11.562;2022-10-16T10:44:56;22.80;82.20
1956;DHT22;978;48.314;11.562;2022-10-16T10:47:30;22.80;82.30
1956;DHT22;978;48.314;11.562;2022-10-16T10:50:05;22.80;82.40
1956;DHT22;978;48.314;11.562;2022-10-16T10:52:51;22.80;82.30
1956;DHT22;978;48.314;11.562;2022-10-16T10:55:24;22.80;82.30
1956;DHT22;978;48.314;11.562;2022-10-16T10:58:16;22.80;82.30
1956;DHT22;978;48.314;11.562;2022-10-16T11:00:50;22.80;82.20
1956;DHT22;978;48.314;11.562;2022-10-16T11:03:31;22.80;82.30
1956;DHT22;978;48.314;11.562;2022-10-16T11:06:05;22.80;82.20
1956;DHT22;978;48.314;11.562;2022-10-16T11:08:37;22.80;82.10
1956;DHT22;978;48.314;11.562;2022-10-16T11:11:09;22.80;82.00
1956;DHT22;978;48.314;11.562;2022-10-16T11:13:43;22.80;82.00
1956;DHT22;978;48.314;11.562;2022-10-16T11:16:16;22.80;82.00
1956;DHT22;978;48.314;11.562;2022-10-16T11:18:49;22.80;82.00
1956;DHT22;978;48.314;11.562;2022-10-16T11:21:19;22.80;82.00
1956;DHT22;978;48.314;11.562;2022-10-16T11:23:53;22.80;82.10
1956;DHT22;978;48.314;11.562;2022-10-16T11:26:24;22.80;82.10
1956;DHT22;978;48.314;11.562;2022-10-16T11:28:54;22.80;82.10
1956;DHT22;978;48.314;11.562;2022-10-16T11:31:26;22.80;82.20
1956;DHT22;978;48.314;11.562;2022-10-16T11:34:01;22.80;82.20
1956;DHT22;978;48.314;11.562;2022-10-16T11:36:34;22.80;82.20
1956;DHT22;978;48.314;11.562;2022-10-16T11:39:11;22.80;82.30
1956;DHT22;978;48.314;11.562;2022-10-16T11:41:47;22.80;82.30
1956;DHT22;978;48.314;11.562;2022-10-16T11:44:27;22.80;82.30
1956;DHT22;978;48.314;11.562;2022-10-16T11:47:08;22.80;82.30
1956;DHT22;978;48.314;11.562;2022-10-16T11:49:37;22.80;82.30
1956;DHT22;978;48.314;11.562;2022-10-16T11:52:11;22.80;82.30
1956;DHT22;978;48.314;11.562;2022-10-16T11:54:45;22.80;82.40
1956;DHT22;978;48.314;11.562;2022-10-16T11:57:17;22.80;82.30
1956;DHT22;978;48.314;11.562;2022-10-16T11:59:52;22.80;82.40
1956;DHT22;978;48.314;11.562;2022-10-16T12:02:35;22.80;82.40
1956;DHT22;978;48.314;11.562;2022-10-16T12:05:18;22.80;82.40
1956;DHT22;978;48.314;11.562;2022-10-16T12:07:51;22.80;82.40
1956;DHT22;978;48.314;11.562;2022-10-16T12:10:24;22.80;82.60
1956;DHT22;978;48.314;11.562;2022-10-16T12:12:51;22.80;82.40
1956;DHT22;978;48.314;11.562;2022-10-16T12:15:22;22.80;82.40
1956;DHT22;978;48.314;11.562;2022-10-16T12:17:49;22.80;82.30
1956;DHT22;978;48.314;11.562;2022-10-16T12:20:25;22.80;82.10
1956;DHT22;978;48.314;11.562;2022-10-16T12:22:54;22.80;82.00
1956;DHT22;978;48.314;11.562;2022-10-16T12:25:26;22.80;82.00
1956;DHT22;978;48.314;11.562;2022-10-16T12:27:56;22.80;82.00
1956;DHT22;978;48.314;11.562;2022-10-16T12:30:25;22.80;82.10
1956;DHT22;978;48.314;11.562;2022-10-16T12:32:56;22.80;82.10
1956;DHT22;978;48.314;11.562;2022-10-16T12:35:26;22.80;82.10
1956;DHT22;978;48.314;11.562;2022-10-16T12:37:54;22.80;82.20
1956;DHT22;978;48.314;11.562;2022-10-16T12:40:27;22.80;82.20
1956;DHT22;978;48.314;11.562;2022-10-16T12:42:55;22.80;82.20
1956;DHT22;978;48.314;11.562;2022-10-16T12:45:28;22.80;82.20
1956;DHT22;978;48.314;11.562;2022-10-16T12:47:57;22.80;82.30
1956;DHT22;978;48.314;11.562;2022-10-16T12:50:31;22.80;82.30
1956;DHT22;978;48.314;11.562;2022-10-16T12:52:59;22.80;82.30
1956;DHT22;978;48.314;11.562;2022-10-16T12:55:33;22.80;82.20
1956;DHT22;978;48.314;11.562;2022-10-16T12:58:12;22.80;82.20
1956;DHT22;978;48.314;11.562;2022-10-16T13:00:45;22.80;82.30
1956;DHT22;978;48.314;11.562;2022-10-16T13:03:44;22.80;82.30
1956;DHT22;978;48.314;11.562;2022-10-16T13:06:20;22.80;82.30
1956;DHT22;978;48.314;11.562;2022-10-16T13:09:01;22.80;82.30
1956;DHT22;978;48.314;11.562;2022-10-16T13:11:43;22.80;82.30
1956;DHT22;978;48.314;11.562;2022-10-16T13:14:36;22.80;82.30
1956;DHT22;978;48.314;11.562;2022-10-16T13:17:11;22.80;82.30
1956;DHT22;978;48.314;11.562;2022-10-16T13:19:45;22.80;82.30
1956;DHT22;978;48.314;11.562;2022-10-16T13:22:21;22.80;82.30
1956;DHT22;978;48.314;11.562;2022-10-16T13:25:02;22.70;82.30
1956;DHT22;978;48.314;11.562;2022-10-16T13:27:40;22.80;82.30
1956;DHT22;978;48.314;11.562;2022-10-16T13:30:14;22.80;82.30
1956;DHT22;978;48.314;11.562;2022-10-16T13:32:45;22.80;82.30
1956;DHT22;978;48.314;11.562;2022-10-16T13:35:20;22.80;82.30
1956;DHT22;978;48.314;11.562;2022-10-16T13:37:47;22.80;82.30
1956;DHT22;978;48.314;11.562;2022-10-16T13:40:19;22.80;82.30
1956;DHT22;978;48.314;11.562;2022-10-16T13:42:48;22.80;82.30
1956;DHT22;978;48.314;11.562;2022-10-16T13:45:19;22.80;82.40
1956;DHT22;978;48.314;11.562;2022-10-16T13:47:46;22.80;82.40
1956;DHT22;978;48.314;11.562;2022-10-16T13:50:15;22.80;82.40
1956;DHT22;978;48.314;11.562;2022-10-16T13:52:42;22.80;82.40
1956;DHT22;978;48.314;11.562;2022-10-16T13:55:10;22.80;82.40
1956;DHT22;978;48.314;11.562;2022-10-16T13:57:37;22.80;82.40
1956;DHT22;978;48.314;11.562;2022-10-16T14:00:19;22.80;82.40
1956;DHT22;978;48.314;11.562;2022-10-16T14:02:52;22.80;82.40
1956;DHT22;978;48.314;11.562;2022-10-16T14:05:19;22.80;82.40
1956;DHT22;978;48.314;11.562;2022-10-16T14:07:49;22.80;82.40
1956;DHT22;978;48.314;11.562;2022-10-16T14:10:22;22.80;82.40
1956;DHT22;978;48.314;11.562;2022-10-16T14:13:01;22.80;82.40
1956;DHT22;978;48.314;11.562;2022-10-16T14:15:31;22.80;82.50
1956;DHT22;978;48.314;11.562;2022-10-16T14:17:59;22.80;82.60
1956;DHT22;978;48.314;11.562;2022-10-16T14:20:28;22.80;82.60
1956;DHT22;978;48.314;11.562;2022-10-16T14:23:00;22.80;82.60
1956;DHT22;978;48.314;11.562;2022-10-16T14:25:29;22.80;82.60
1956;DHT22;978;48.314;11.562;2022-10-16T14:27:59;22.80;82.60
1956;DHT22;978;48.314;11.562;2022-10-16T14:30:27;22.80;82.60
1956;DHT22;978;48.314;11.562;2022-10-16T14:32:57;22.80;82.60
1956;DHT22;978;48.314;11.562;2022-10-16T14:35:27;22.80;82.60
1956;DHT22;978;48.314;11.562;2022-10-16T14:37:54;22.80;82.60
1956;DHT22;978;48.314;11.562;2022-10-16T14:40:24;22.80;82.50
1956;DHT22;978;48.314;11.562;2022-10-16T14:42:51;22.80;82.60
1956;DHT22;978;48.314;11.562;2022-10-16T14:45:23;22.80;82.60
1956;DHT22;978;48.314;11.562;2022-10-16T14:47:53;22.80;82.60
1956;DHT22;978;48.314;11.562;2022-10-16T14:50:22;22.80;82.60
1956;DHT22;978;48.314;11.562;2022-10-16T14:52:48;22.80;82.50
1956;DHT22;978;48.314;11.562;2022-10-16T14:55:15;22.80;82.50
1956;DHT22;978;48.314;11.562;2022-10-16T14:57:43;22.70;82.50
1956;DHT22;978;48.314;11.562;2022-10-16T15:00:16;22.80;82.50
1956;DHT22;978;48.314;11.562;2022-10-16T15:02:44;22.80;82.60
1956;DHT22;978;48.314;11.562;2022-10-16T15:05:14;22.80;82.60
1956;DHT22;978;48.314;11.562;2022-10-16T15:07:42;22.80;82.60
1956;DHT22;978;48.314;11.562;2022-10-16T15:10:10;22.80;82.60
1956;DHT22;978;48.314;11.562;2022-10-16T15:12:37;22.80;82.70
1956;DHT22;978;48.314;11.562;2022-10-16T15:15:26;22.80;82.70
1956;DHT22;978;48.314;11.562;2022-10-16T15:17:56;22.80;82.70
1956;DHT22;978;48.314;11.562;2022-10-16T15:20:26;22.80;83.20
1956;DHT22;978;48.314;11.562;2022-10-16T15:22:54;22.80;82.90
1956;DHT22;978;48.314;11.562;2022-10-16T15:25:32;22.80;83.00
1956;DHT22;978;48.314;11.562;2022-10-16T15:28:00;22.80;83.00
1956;DHT22;978;48.314;11.562;2022-10-16T15:30:27;22.80;83.10
1956;DHT22;978;48.314;11.562;2022-10-16T15:32:54;22.80;83.20
1956;DHT22;978;48.314;11.562;2022-10-16T15:35:22;22.80;83.20
1956;DHT22;978;48.314;11.562;2022-10-16T15:37:48;22.80;83.40
1956;DHT22;978;48.314;11.562;2022-10-16T15:40:18;22.80;83.30
1956;DHT22;978;48.314;11.562;2022-10-16T15:42:45;22.80;83.40
1956;DHT22;978;48.314;11.562;2022-10-16T15:45:12;22.80;83.40
1956;DHT22;978;48.314;11.562;2022-10-16T15:47:41;22.80;83.40
1956;DHT22;978;48.314;11.562;2022-10-16T15:50:10;22.80;83.40
1956;DHT22;978;48.314;11.562;2022-10-16T15:52:37;22.80;83.40
1956;DHT22;978;48.314;11.562;2022-10-16T15:55:06;22.80;83.40
1956;DHT22;978;48.314;11.562;2022-10-16T15:57:34;22.80;83.40
1956;DHT22;978;48.314;11.562;2022-10-16T16:00:05;22.80;83.40
1956;DHT22;978;48.314;11.562;2022-10-16T16:02:32;22.80;83.40
1956;DHT22;978;48.314;11.562;2022-10-16T16:04:58;22.80;83.50
1956;DHT22;978;48.314;11.562;2022-10-16T16:07:25;22.80;83.50
1956;DHT22;978;48.314;11.562;2022-10-16T16:09:53;22.80;83.50
1956;DHT22;978;48.314;11.562;2022-10-16T16:12:20;22.80;83.50
1956;DHT22;978;48.314;11.562;2022-10-16T16:14:48;22.80;83.50
1956;DHT22;978;48.314;11.562;2022-10-16T16:17:16;22.80;83.50
1956;DHT22;978;48.314;11.562;2022-10-16T16:19:43;22.80;83.50